sensor_id;sensor_type;location;lat;lon;timestamp;pressure;altitude;pressure_sealevel;temperature;humidity
73101;BME280;61288;53.446;-2.266;2022-08-19T00:01:10;100824.22;;;15.89;74.73
73101;BME280;61288;53.446;-2.266;2022-08-19T00:03:35;100828.66;;;15.87;74.99
73101;BME280;61288;53.446;-2.266;2022-08-19T00:06:01;100824.38;;;15.86;74.35
73101;BME280;61288;53.446;-2.266;2022-08-19T00:08:26;100833.25;;;15.83;76.02
73101;BME280;61288;53.446;-2.266;2022-08-19T00:10:52;100828.22;;;15.80;75.49
73101;BME280;61288;53.446;-2.266;2022-08-19T00:13:17;100827.34;;;15.80;75.19
73101;BME280;61288;53.446;-2.266;2022-08-19T00:15:44;100834.56;;;15.76;74.90
73101;BME280;61288;53.446;-2.266;2022-08-19T00:18:10;100835.50;;;15.75;73.64
73101;BME280;61288;53.446;-2.266;2022-08-19T00:20:36;100836.41;;;15.74;74.18
73101;BME280;61288;53.446;-2.266;2022-08-19T00:23:03;100843.41;;;15.73;75.21
73101;BME280;61288;53.446;-2.266;2022-08-19T00:25:29;100837.63;;;15.68;75.18
73101;BME280;61288;53.446;-2.266;2022-08-19T00:27:54;100831.66;;;15.66;74.36
73101;BME280;61288;53.446;-2.266;2022-08-19T00:30:20;100833.41;;;15.66;75.34
73101;BME280;61288;53.446;-2.266;2022-08-19T00:32:46;100832.66;;;15.64;74.17
73101;BME280;61288;53.446;-2.266;2022-08-19T00:35:12;100838.94;;;15.61;72.67
73101;BME280;61288;53.446;-2.266;2022-08-19T00:37:38;100834.78;;;15.57;73.57
73101;BME280;61288;53.446;-2.266;2022-08-19T00:40:10;100839.38;;;15.53;73.05
73101;BME280;61288;53.446;-2.266;2022-08-19T00:42:38;100838.63;;;15.51;73.36
73101;BME280;61288;53.446;-2.266;2022-08-19T00:45:10;100839.47;;;15.52;72.45
73101;BME280;61288;53.446;-2.266;2022-08-19T00:47:36;100842.19;;;15.50;72.69
73101;BME280;61288;53.446;-2.266;2022-08-19T00:50:04;100846.66;;;15.48;72.48
73101;BME280;61288;53.446;-2.266;2022-08-19T00:52:34;100858.97;;;15.46;71.72
73101;BME280;61288;53.446;-2.266;2022-08-19T00:55:01;100853.81;;;15.44;72.82
73101;BME280;61288;53.446;-2.266;2022-08-19T00:57:33;100865.28;;;15.42;72.98
73101;BME280;61288;53.446;-2.266;2022-08-19T01:00:00;100859.41;;;15.38;71.37
73101;BME280;61288;53.446;-2.266;2022-08-19T01:02:29;100859.47;;;15.37;71.22
73101;BME280;61288;53.446;-2.266;2022-08-19T01:04:55;100869.91;;;15.37;71.06
73101;BME280;61288;53.446;-2.266;2022-08-19T01:07:21;100867.41;;;15.35;71.05
73101;BME280;61288;53.446;-2.266;2022-08-19T01:09:47;100860.50;;;15.34;70.93
73101;BME280;61288;53.446;-2.266;2022-08-19T01:12:13;100871.97;;;15.31;69.62
73101;BME280;61288;53.446;-2.266;2022-08-19T01:14:40;100869.53;;;15.28;69.28
73101;BME280;61288;53.446;-2.266;2022-08-19T01:17:09;100865.25;;;15.27;71.00
73101;BME280;61288;53.446;-2.266;2022-08-19T01:19:40;100861.06;;;15.25;69.47
73101;BME280;61288;53.446;-2.266;2022-08-19T01:22:34;100862.81;;;15.24;70.42
73101;BME280;61288;53.446;-2.266;2022-08-19T01:25:03;100857.78;;;15.21;70.66
73101;BME280;61288;53.446;-2.266;2022-08-19T01:27:49;100865.69;;;15.20;69.55
73101;BME280;61288;53.446;-2.266;2022-08-19T01:30:35;100857.19;;;15.16;70.42
73101;BME280;61288;53.446;-2.266;2022-08-19T01:33:02;100860.75;;;15.15;70.17
73101;BME280;61288;53.446;-2.266;2022-08-19T01:35:31;100864.47;;;15.11;70.56
73101;BME280;61288;53.446;-2.266;2022-08-19T01:38:00;100858.47;;;15.09;70.64
73101;BME280;61288;53.446;-2.266;2022-08-19T01:40:30;100860.41;;;15.05;71.14
73101;BME280;61288;53.446;-2.266;2022-08-19T01:42:56;100865.81;;;15.02;70.29
73101;BME280;61288;53.446;-2.266;2022-08-19T01:45:26;100860.78;;;14.99;71.70
73101;BME280;61288;53.446;-2.266;2022-08-19T01:47:52;100862.69;;;14.95;71.66
73101;BME280;61288;53.446;-2.266;2022-08-19T01:50:19;100877.72;;;14.92;71.61
73101;BME280;61288;53.446;-2.266;2022-08-19T01:52:44;100865.56;;;14.91;70.61
73101;BME280;61288;53.446;-2.266;2022-08-19T01:55:15;100871.63;;;14.91;70.60
73101;BME280;61288;53.446;-2.266;2022-08-19T01:57:44;100873.56;;;14.87;70.93
73101;BME280;61288;53.446;-2.266;2022-08-19T02:00:13;100874.66;;;14.83;70.39
73101;BME280;61288;53.446;-2.266;2022-08-19T02:02:41;100880.91;;;14.81;69.79
73101;BME280;61288;53.446;-2.266;2022-08-19T02:05:09;100879.28;;;14.78;70.42
73101;BME280;61288;53.446;-2.266;2022-08-19T02:07:36;100888.41;;;14.71;70.79
73101;BME280;61288;53.446;-2.266;2022-08-19T02:10:08;100881.63;;;14.67;70.67
73101;BME280;61288;53.446;-2.266;2022-08-19T02:12:35;100886.16;;;14.63;71.18
73101;BME280;61288;53.446;-2.266;2022-08-19T02:15:00;100887.34;;;14.57;70.96
73101;BME280;61288;53.446;-2.266;2022-08-19T02:17:29;100897.88;;;14.56;71.07
73101;BME280;61288;53.446;-2.266;2022-08-19T02:19:55;100897.09;;;14.54;71.94
73101;BME280;61288;53.446;-2.266;2022-08-19T02:22:22;100899.78;;;14.52;70.73
73101;BME280;61288;53.446;-2.266;2022-08-19T02:24:54;100904.25;;;14.50;71.05
73101;BME280;61288;53.446;-2.266;2022-08-19T02:27:21;100901.81;;;14.47;70.72
73101;BME280;61288;53.446;-2.266;2022-08-19T02:29:48;100906.34;;;14.43;71.62
73101;BME280;61288;53.446;-2.266;2022-08-19T02:32:15;100907.41;;;14.39;72.21
73101;BME280;61288;53.446;-2.266;2022-08-19T02:34:41;100914.66;;;14.34;72.14
73101;BME280;61288;53.446;-2.266;2022-08-19T02:37:07;100915.72;;;14.30;71.83
73101;BME280;61288;53.446;-2.266;2022-08-19T02:39:54;100921.13;;;14.27;71.72
73101;BME280;61288;53.446;-2.266;2022-08-19T02:42:19;100916.06;;;14.24;72.17
73101;BME280;61288;53.446;-2.266;2022-08-19T02:44:45;100917.97;;;14.20;72.48
73101;BME280;61288;53.446;-2.266;2022-08-19T02:47:10;100911.25;;;14.16;73.19
73101;BME280;61288;53.446;-2.266;2022-08-19T02:49:36;100906.28;;;14.11;72.61
73101;BME280;61288;53.446;-2.266;2022-08-19T02:52:02;100905.59;;;14.08;72.92
73101;BME280;61288;53.446;-2.266;2022-08-19T02:54:28;100911.72;;;14.07;73.42
73101;BME280;61288;53.446;-2.266;2022-08-19T02:56:54;100920.53;;;14.04;73.40
73101;BME280;61288;53.446;-2.266;2022-08-19T02:59:20;100918.09;;;14.01;73.66
73101;BME280;61288;53.446;-2.266;2022-08-19T03:01:46;100927.00;;;13.97;73.56
73101;BME280;61288;53.446;-2.266;2022-08-19T03:04:14;100925.31;;;13.96;74.16
73101;BME280;61288;53.446;-2.266;2022-08-19T03:06:43;100926.31;;;13.93;74.41
73101;BME280;61288;53.446;-2.266;2022-08-19T03:09:10;100921.19;;;13.92;74.96
73101;BME280;61288;53.446;-2.266;2022-08-19T03:11:37;100923.25;;;13.85;74.97
73101;BME280;61288;53.446;-2.266;2022-08-19T03:14:06;100923.41;;;13.82;75.24
73101;BME280;61288;53.446;-2.266;2022-08-19T03:16:35;100934.75;;;13.81;75.89
73101;BME280;61288;53.446;-2.266;2022-08-19T03:19:05;100934.19;;;13.74;75.85
73101;BME280;61288;53.446;-2.266;2022-08-19T03:21:33;100927.56;;;13.68;76.27
73101;BME280;61288;53.446;-2.266;2022-08-19T03:24:01;100924.19;;;13.66;76.41
73101;BME280;61288;53.446;-2.266;2022-08-19T03:26:28;100925.88;;;13.67;76.58
73101;BME280;61288;53.446;-2.266;2022-08-19T03:28:57;100927.72;;;13.65;76.89
73101;BME280;61288;53.446;-2.266;2022-08-19T03:31:25;100929.63;;;13.62;76.56
73101;BME280;61288;53.446;-2.266;2022-08-19T03:33:52;100924.56;;;13.58;76.53
73101;BME280;61288;53.446;-2.266;2022-08-19T03:36:20;100924.88;;;13.52;76.58
73101;BME280;61288;53.446;-2.266;2022-08-19T03:38:48;100931.06;;;13.50;76.82
73101;BME280;61288;53.446;-2.266;2022-08-19T03:44:00;100933.91;;;13.45;76.86
73101;BME280;61288;53.446;-2.266;2022-08-19T03:46:29;100927.19;;;13.39;76.67
73101;BME280;61288;53.446;-2.266;2022-08-19T03:48:57;100931.50;;;13.40;76.36
73101;BME280;61288;53.446;-2.266;2022-08-19T03:51:26;100939.19;;;13.43;76.90
73101;BME280;61288;53.446;-2.266;2022-08-19T03:53:53;100934.00;;;13.42;77.60
73101;BME280;61288;53.446;-2.266;2022-08-19T03:56:20;100950.44;;;13.44;77.65
73101;BME280;61288;53.446;-2.266;2022-08-19T03:58:46;100944.38;;;13.43;77.85
73101;BME280;61288;53.446;-2.266;2022-08-19T04:01:18;100946.19;;;13.41;77.93
73101;BME280;61288;53.446;-2.266;2022-08-19T04:03:45;100953.44;;;13.35;77.70
73101;BME280;61288;53.446;-2.266;2022-08-19T04:06:18;100956.97;;;13.34;77.60
73101;BME280;61288;53.446;-2.266;2022-08-19T04:08:49;100958.78;;;13.32;77.57
73101;BME280;61288;53.446;-2.266;2022-08-19T04:11:19;100964.09;;;13.30;78.18
73101;BME280;61288;53.446;-2.266;2022-08-19T04:13:47;100959.09;;;13.25;78.26
73101;BME280;61288;53.446;-2.266;2022-08-19T04:16:13;100965.50;;;13.18;78.31
73101;BME280;61288;53.446;-2.266;2022-08-19T04:18:39;100974.38;;;13.14;78.50
73101;BME280;61288;53.446;-2.266;2022-08-19T04:21:06;100964.25;;;13.08;78.78
73101;BME280;61288;53.446;-2.266;2022-08-19T04:23:33;100971.41;;;13.03;78.95
73101;BME280;61288;53.446;-2.266;2022-08-19T04:26:02;100972.56;;;12.97;79.00
73101;BME280;61288;53.446;-2.266;2022-08-19T04:28:28;100972.72;;;12.94;79.22
73101;BME280;61288;53.446;-2.266;2022-08-19T04:30:54;100969.41;;;12.90;79.25
73101;BME280;61288;53.446;-2.266;2022-08-19T04:33:23;100970.31;;;12.89;79.19
73101;BME280;61288;53.446;-2.266;2022-08-19T04:35:50;100975.72;;;12.84;79.11
73101;BME280;61288;53.446;-2.266;2022-08-19T04:38:19;100974.25;;;12.79;79.65
73101;BME280;61288;53.446;-2.266;2022-08-19T04:40:47;100984.13;;;12.70;79.64
73101;BME280;61288;53.446;-2.266;2022-08-19T04:43:33;100980.00;;;12.66;79.59
73101;BME280;61288;53.446;-2.266;2022-08-19T04:46:11;100991.44;;;12.62;80.12
73101;BME280;61288;53.446;-2.266;2022-08-19T04:48:38;100994.13;;;12.61;80.05
73101;BME280;61288;53.446;-2.266;2022-08-19T04:51:10;100991.53;;;12.61;80.01
73101;BME280;61288;53.446;-2.266;2022-08-19T04:56:16;101004.72;;;12.56;79.63
73101;BME280;61288;53.446;-2.266;2022-08-19T04:58:45;101002.91;;;12.58;80.65
73101;BME280;61288;53.446;-2.266;2022-08-19T05:01:14;101004.78;;;12.54;80.03
73101;BME280;61288;53.446;-2.266;2022-08-19T05:03:41;101015.44;;;12.48;79.82
73101;BME280;61288;53.446;-2.266;2022-08-19T05:06:09;101013.94;;;12.42;80.13
73101;BME280;61288;53.446;-2.266;2022-08-19T05:08:37;101013.38;;;12.36;80.17
73101;BME280;61288;53.446;-2.266;2022-08-19T05:11:27;101023.78;;;12.36;80.45
73101;BME280;61288;53.446;-2.266;2022-08-19T05:14:09;101023.69;;;12.37;80.54
73101;BME280;61288;53.446;-2.266;2022-08-19T05:16:37;101022.09;;;12.35;81.34
73101;BME280;61288;53.446;-2.266;2022-08-19T05:19:03;101015.47;;;12.27;81.48
73101;BME280;61288;53.446;-2.266;2022-08-19T05:21:47;101009.56;;;12.24;80.79
73101;BME280;61288;53.446;-2.266;2022-08-19T05:24:31;101021.91;;;12.19;80.77
73101;BME280;61288;53.446;-2.266;2022-08-19T05:27:00;101025.59;;;12.13;80.61
73101;BME280;61288;53.446;-2.266;2022-08-19T05:29:28;101019.34;;;12.17;81.37
73101;BME280;61288;53.446;-2.266;2022-08-19T05:31:55;101027.94;;;12.19;81.35
73101;BME280;61288;53.446;-2.266;2022-08-19T05:34:22;101040.72;;;12.24;81.75
73101;BME280;61288;53.446;-2.266;2022-08-19T05:36:54;101044.09;;;12.26;80.96
73101;BME280;61288;53.446;-2.266;2022-08-19T05:39:23;101043.97;;;12.29;80.85
73101;BME280;61288;53.446;-2.266;2022-08-19T05:41:52;101046.56;;;12.29;80.32
73101;BME280;61288;53.446;-2.266;2022-08-19T05:44:19;101040.47;;;12.30;80.54
73101;BME280;61288;53.446;-2.266;2022-08-19T05:46:47;101042.09;;;12.33;80.04
73101;BME280;61288;53.446;-2.266;2022-08-19T05:49:14;101046.44;;;12.32;79.95
73101;BME280;61288;53.446;-2.266;2022-08-19T05:51:42;101047.44;;;12.30;79.91
73101;BME280;61288;53.446;-2.266;2022-08-19T05:54:08;101051.72;;;12.31;79.80
73101;BME280;61288;53.446;-2.266;2022-08-19T05:56:37;101053.47;;;12.30;79.54
73101;BME280;61288;53.446;-2.266;2022-08-19T05:59:04;101043.00;;;12.32;79.35
73101;BME280;61288;53.446;-2.266;2022-08-19T06:01:37;101053.28;;;12.35;79.34
73101;BME280;61288;53.446;-2.266;2022-08-19T06:04:04;101059.16;;;12.38;78.99
73101;BME280;61288;53.446;-2.266;2022-08-19T06:06:31;101062.63;;;12.39;79.05
73101;BME280;61288;53.446;-2.266;2022-08-19T06:08:56;101055.66;;;12.39;78.42
73101;BME280;61288;53.446;-2.266;2022-08-19T06:11:41;101051.31;;;12.40;77.84
73101;BME280;61288;53.446;-2.266;2022-08-19T06:14:15;101052.88;;;12.44;77.88
73101;BME280;61288;53.446;-2.266;2022-08-19T06:16:42;101057.25;;;12.44;77.11
73101;BME280;61288;53.446;-2.266;2022-08-19T06:19:11;101051.97;;;12.45;77.02
73101;BME280;61288;53.446;-2.266;2022-08-19T06:21:39;101056.19;;;12.48;77.18
73101;BME280;61288;53.446;-2.266;2022-08-19T06:24:07;101057.66;;;12.53;77.19
73101;BME280;61288;53.446;-2.266;2022-08-19T06:26:36;101060.84;;;12.60;76.90
73101;BME280;61288;53.446;-2.266;2022-08-19T06:29:05;101051.25;;;12.62;76.44
73101;BME280;61288;53.446;-2.266;2022-08-19T06:31:32;101044.16;;;12.66;75.74
73101;BME280;61288;53.446;-2.266;2022-08-19T06:34:00;101045.63;;;12.71;75.98
73101;BME280;61288;53.446;-2.266;2022-08-19T06:36:30;101054.91;;;12.77;76.04
73101;BME280;61288;53.446;-2.266;2022-08-19T06:39:00;101046.16;;;12.80;75.99
73101;BME280;61288;53.446;-2.266;2022-08-19T06:41:27;101047.63;;;12.85;74.84
73101;BME280;61288;53.446;-2.266;2022-08-19T06:43:54;101047.22;;;12.95;74.70
73101;BME280;61288;53.446;-2.266;2022-08-19T06:46:21;101045.88;;;13.05;74.58
73101;BME280;61288;53.446;-2.266;2022-08-19T06:48:47;101053.97;;;13.18;73.97
73101;BME280;61288;53.446;-2.266;2022-08-19T06:51:15;101057.06;;;13.26;73.64
73101;BME280;61288;53.446;-2.266;2022-08-19T06:53:44;101063.53;;;13.37;73.05
73101;BME280;61288;53.446;-2.266;2022-08-19T06:56:19;101069.81;;;13.52;72.39
73101;BME280;61288;53.446;-2.266;2022-08-19T06:58:46;101067.97;;;13.54;72.09
73101;BME280;61288;53.446;-2.266;2022-08-19T07:01:15;101072.00;;;13.61;71.18
73101;BME280;61288;53.446;-2.266;2022-08-19T07:03:41;101064.81;;;13.66;71.12
73101;BME280;61288;53.446;-2.266;2022-08-19T07:06:10;101070.78;;;13.68;70.99
73101;BME280;61288;53.446;-2.266;2022-08-19T07:08:37;101070.53;;;13.73;71.13
73101;BME280;61288;53.446;-2.266;2022-08-19T07:11:07;101069.72;;;13.72;70.71
73101;BME280;61288;53.446;-2.266;2022-08-19T07:13:34;101079.97;;;13.76;71.28
73101;BME280;61288;53.446;-2.266;2022-08-19T07:16:06;101079.00;;;13.78;69.49
73101;BME280;61288;53.446;-2.266;2022-08-19T07:18:34;101075.25;;;13.84;69.38
73101;BME280;61288;53.446;-2.266;2022-08-19T07:23:29;101080.94;;;13.92;69.03
73101;BME280;61288;53.446;-2.266;2022-08-19T07:25:55;101084.16;;;13.97;69.51
73101;BME280;61288;53.446;-2.266;2022-08-19T07:28:20;101082.00;;;14.06;69.23
73101;BME280;61288;53.446;-2.266;2022-08-19T07:30:48;101084.31;;;14.12;69.72
73101;BME280;61288;53.446;-2.266;2022-08-19T07:33:16;101085.94;;;14.14;68.32
73101;BME280;61288;53.446;-2.266;2022-08-19T07:35:43;101092.75;;;14.17;69.21
73101;BME280;61288;53.446;-2.266;2022-08-19T07:38:09;101092.44;;;14.23;68.31
73101;BME280;61288;53.446;-2.266;2022-08-19T07:40:35;101092.06;;;14.31;69.30
73101;BME280;61288;53.446;-2.266;2022-08-19T07:43:01;101088.31;;;14.37;67.86
73101;BME280;61288;53.446;-2.266;2022-08-19T07:45:27;101097.34;;;14.47;68.93
73101;BME280;61288;53.446;-2.266;2022-08-19T07:47:54;101098.03;;;14.51;68.61
73101;BME280;61288;53.446;-2.266;2022-08-19T07:50:20;101103.09;;;14.54;68.86
73101;BME280;61288;53.446;-2.266;2022-08-19T07:52:48;101101.31;;;14.54;68.08
73101;BME280;61288;53.446;-2.266;2022-08-19T07:55:17;101102.19;;;14.55;67.97
73101;BME280;61288;53.446;-2.266;2022-08-19T07:57:42;101103.88;;;14.56;68.19
73101;BME280;61288;53.446;-2.266;2022-08-19T08:00:09;101102.72;;;14.62;67.72
73101;BME280;61288;53.446;-2.266;2022-08-19T08:02:34;101097.25;;;14.66;67.11
73101;BME280;61288;53.446;-2.266;2022-08-19T08:05:00;101103.09;;;14.71;67.60
73101;BME280;61288;53.446;-2.266;2022-08-19T08:07:44;101114.38;;;14.72;66.88
73101;BME280;61288;53.446;-2.266;2022-08-19T08:10:28;101117.75;;;14.74;67.11
73101;BME280;61288;53.446;-2.266;2022-08-19T08:12:53;101119.22;;;14.80;67.09
73101;BME280;61288;53.446;-2.266;2022-08-19T08:15:20;101127.72;;;14.83;66.92
73101;BME280;61288;53.446;-2.266;2022-08-19T08:17:46;101129.31;;;14.86;66.53
73101;BME280;61288;53.446;-2.266;2022-08-19T08:20:14;101128.84;;;14.95;66.65
73101;BME280;61288;53.446;-2.266;2022-08-19T08:22:44;101128.63;;;15.00;66.40
73101;BME280;61288;53.446;-2.266;2022-08-19T08:25:29;101121.16;;;15.10;66.26
73101;BME280;61288;53.446;-2.266;2022-08-19T08:27:56;101121.47;;;15.20;67.69
73101;BME280;61288;53.446;-2.266;2022-08-19T08:30:28;101123.44;;;15.32;64.87
73101;BME280;61288;53.446;-2.266;2022-08-19T08:32:55;101124.22;;;15.34;63.70
73101;BME280;61288;53.446;-2.266;2022-08-19T08:35:22;101123.88;;;15.40;63.23
73101;BME280;61288;53.446;-2.266;2022-08-19T08:37:49;101124.47;;;15.45;63.23
73101;BME280;61288;53.446;-2.266;2022-08-19T08:48:54;101123.88;;;15.88;58.88
73101;BME280;61288;53.446;-2.266;2022-08-19T08:51:29;101114.25;;;15.89;58.86
73101;BME280;61288;53.446;-2.266;2022-08-19T08:53:59;101115.88;;;15.92;57.81
73101;BME280;61288;53.446;-2.266;2022-08-19T08:56:27;101123.94;;;16.03;59.04
73101;BME280;61288;53.446;-2.266;2022-08-19T08:59:03;101112.88;;;16.14;59.55
73101;BME280;61288;53.446;-2.266;2022-08-19T09:01:33;101118.22;;;16.27;58.52
73101;BME280;61288;53.446;-2.266;2022-08-19T09:03:58;101120.78;;;16.43;58.03
73101;BME280;61288;53.446;-2.266;2022-08-19T09:06:51;101121.00;;;16.54;56.72
73101;BME280;61288;53.446;-2.266;2022-08-19T09:09:40;101127.56;;;16.62;57.96
73101;BME280;61288;53.446;-2.266;2022-08-19T09:14:56;101129.56;;;16.87;56.45
73101;BME280;61288;53.446;-2.266;2022-08-19T09:17:26;101126.28;;;16.83;56.39
73101;BME280;61288;53.446;-2.266;2022-08-19T09:20:22;101129.91;;;16.66;56.06
73101;BME280;61288;53.446;-2.266;2022-08-19T09:22:49;101125.41;;;16.68;55.47
73101;BME280;61288;53.446;-2.266;2022-08-19T09:25:19;101140.31;;;16.97;55.12
73101;BME280;61288;53.446;-2.266;2022-08-19T09:27:49;101140.16;;;17.14;55.71
73101;BME280;61288;53.446;-2.266;2022-08-19T09:30:22;101118.66;;;17.24;55.52
73101;BME280;61288;53.446;-2.266;2022-08-19T09:32:50;101125.56;;;17.25;54.39
73101;BME280;61288;53.446;-2.266;2022-08-19T09:35:24;101131.16;;;17.18;55.70
73101;BME280;61288;53.446;-2.266;2022-08-19T09:37:51;101119.41;;;17.26;55.13
73101;BME280;61288;53.446;-2.266;2022-08-19T09:40:18;101121.13;;;17.40;55.71
73101;BME280;61288;53.446;-2.266;2022-08-19T09:42:45;101122.31;;;17.49;53.90
73101;BME280;61288;53.446;-2.266;2022-08-19T09:45:15;101127.56;;;17.63;54.30
73101;BME280;61288;53.446;-2.266;2022-08-19T09:47:42;101124.09;;;17.90;55.02
73101;BME280;61288;53.446;-2.266;2022-08-19T09:50:10;101134.28;;;17.95;52.49
73101;BME280;61288;53.446;-2.266;2022-08-19T09:52:37;101134.47;;;17.92;52.79
73101;BME280;61288;53.446;-2.266;2022-08-19T09:55:06;101142.13;;;17.95;52.92
73101;BME280;61288;53.446;-2.266;2022-08-19T09:57:32;101139.84;;;17.75;52.61
73101;BME280;61288;53.446;-2.266;2022-08-19T09:59:58;101138.09;;;17.76;52.75
73101;BME280;61288;53.446;-2.266;2022-08-19T10:02:24;101140.75;;;17.89;51.71
73101;BME280;61288;53.446;-2.266;2022-08-19T10:04:51;101132.59;;;17.94;52.30
73101;BME280;61288;53.446;-2.266;2022-08-19T10:07:37;101131.94;;;18.04;53.02
73101;BME280;61288;53.446;-2.266;2022-08-19T10:10:06;101125.78;;;18.18;52.55
73101;BME280;61288;53.446;-2.266;2022-08-19T10:12:33;101115.16;;;18.20;52.97
73101;BME280;61288;53.446;-2.266;2022-08-19T10:14:59;101118.41;;;18.11;51.76
73101;BME280;61288;53.446;-2.266;2022-08-19T10:17:25;101105.09;;;18.14;53.35
73101;BME280;61288;53.446;-2.266;2022-08-19T10:19:51;101118.66;;;18.33;52.74
73101;BME280;61288;53.446;-2.266;2022-08-19T10:22:17;101112.38;;;18.49;52.65
73101;BME280;61288;53.446;-2.266;2022-08-19T10:24:43;101111.13;;;18.42;51.65
73101;BME280;61288;53.446;-2.266;2022-08-19T10:27:09;101113.19;;;18.24;52.62
73101;BME280;61288;53.446;-2.266;2022-08-19T10:29:34;101118.19;;;18.14;53.93
73101;BME280;61288;53.446;-2.266;2022-08-19T10:32:06;101127.28;;;17.81;53.61
73101;BME280;61288;53.446;-2.266;2022-08-19T10:34:32;101115.00;;;17.54;54.62
73101;BME280;61288;53.446;-2.266;2022-08-19T10:36:59;101124.19;;;17.61;54.84
73101;BME280;61288;53.446;-2.266;2022-08-19T10:39:25;101121.72;;;17.72;56.26
73101;BME280;61288;53.446;-2.266;2022-08-19T10:41:51;101123.34;;;17.88;53.42
73101;BME280;61288;53.446;-2.266;2022-08-19T10:44:17;101127.53;;;18.18;52.98
73101;BME280;61288;53.446;-2.266;2022-08-19T10:46:44;101116.66;;;18.37;51.73
73101;BME280;61288;53.446;-2.266;2022-08-19T10:49:11;101120.56;;;18.44;52.94
73101;BME280;61288;53.446;-2.266;2022-08-19T10:51:39;101107.34;;;18.72;51.39
73101;BME280;61288;53.446;-2.266;2022-08-19T10:54:24;101113.38;;;19.37;50.46
73101;BME280;61288;53.446;-2.266;2022-08-19T10:57:10;101119.19;;;19.54;48.35
73101;BME280;61288;53.446;-2.266;2022-08-19T10:59:37;101108.78;;;19.28;49.28
73101;BME280;61288;53.446;-2.266;2022-08-19T11:02:06;101108.41;;;19.45;49.54
73101;BME280;61288;53.446;-2.266;2022-08-19T11:04:33;101098.53;;;19.12;48.33
73101;BME280;61288;53.446;-2.266;2022-08-19T11:06:58;101108.50;;;18.81;47.91
73101;BME280;61288;53.446;-2.266;2022-08-19T11:09:26;101104.28;;;19.17;48.91
73101;BME280;61288;53.446;-2.266;2022-08-19T11:11:53;101107.97;;;19.14;46.99
73101;BME280;61288;53.446;-2.266;2022-08-19T11:14:20;101106.69;;;18.94;48.32
73101;BME280;61288;53.446;-2.266;2022-08-19T11:16:47;101101.78;;;18.89;47.54
73101;BME280;61288;53.446;-2.266;2022-08-19T11:19:14;101115.75;;;18.64;49.12
73101;BME280;61288;53.446;-2.266;2022-08-19T11:21:43;101109.53;;;18.52;49.05
73101;BME280;61288;53.446;-2.266;2022-08-19T11:24:15;101109.22;;;18.44;49.17
73101;BME280;61288;53.446;-2.266;2022-08-19T11:26:42;101107.97;;;18.50;50.18
73101;BME280;61288;53.446;-2.266;2022-08-19T11:29:10;101106.31;;;18.61;49.71
73101;BME280;61288;53.446;-2.266;2022-08-19T11:31:37;101103.88;;;18.84;49.51
73101;BME280;61288;53.446;-2.266;2022-08-19T11:34:07;101111.44;;;18.76;48.67
73101;BME280;61288;53.446;-2.266;2022-08-19T11:36:36;101112.38;;;18.62;50.82
73101;BME280;61288;53.446;-2.266;2022-08-19T11:39:04;101106.69;;;18.55;50.06
73101;BME280;61288;53.446;-2.266;2022-08-19T11:41:32;101110.81;;;18.59;49.87
73101;BME280;61288;53.446;-2.266;2022-08-19T11:43:58;101112.50;;;18.99;48.59
73101;BME280;61288;53.446;-2.266;2022-08-19T11:46:25;101110.63;;;19.39;47.85
73101;BME280;61288;53.446;-2.266;2022-08-19T11:48:53;101116.44;;;19.92;48.36
73101;BME280;61288;53.446;-2.266;2022-08-19T11:51:23;101126.84;;;20.30;45.81
73101;BME280;61288;53.446;-2.266;2022-08-19T11:53:49;101121.88;;;20.49;47.25
73101;BME280;61288;53.446;-2.266;2022-08-19T11:56:17;101111.78;;;20.32;43.77
73101;BME280;61288;53.446;-2.266;2022-08-19T11:58:44;101122.81;;;20.01;44.71
73101;BME280;61288;53.446;-2.266;2022-08-19T12:01:14;101124.63;;;19.88;47.03
73101;BME280;61288;53.446;-2.266;2022-08-19T12:03:41;101118.16;;;19.56;46.56
73101;BME280;61288;53.446;-2.266;2022-08-19T12:06:08;101118.69;;;19.48;47.85
73101;BME280;61288;53.446;-2.266;2022-08-19T12:08:34;101119.09;;;19.55;46.67
73101;BME280;61288;53.446;-2.266;2022-08-19T12:11:00;101120.78;;;19.56;46.86
73101;BME280;61288;53.446;-2.266;2022-08-19T12:13:28;101123.31;;;19.58;47.19
73101;BME280;61288;53.446;-2.266;2022-08-19T12:15:54;101126.94;;;19.44;46.96
73101;BME280;61288;53.446;-2.266;2022-08-19T12:18:19;101118.94;;;19.32;48.41
73101;BME280;61288;53.446;-2.266;2022-08-19T12:20:45;101122.97;;;19.25;49.44
73101;BME280;61288;53.446;-2.266;2022-08-19T12:23:12;101130.78;;;19.14;48.50
73101;BME280;61288;53.446;-2.266;2022-08-19T12:25:44;101122.38;;;19.09;48.56
73101;BME280;61288;53.446;-2.266;2022-08-19T12:28:20;101129.53;;;19.07;48.14
73101;BME280;61288;53.446;-2.266;2022-08-19T12:30:47;101135.31;;;18.99;49.95
73101;BME280;61288;53.446;-2.266;2022-08-19T12:33:14;101130.34;;;18.94;52.03
73101;BME280;61288;53.446;-2.266;2022-08-19T12:35:44;101127.91;;;18.91;51.18
73101;BME280;61288;53.446;-2.266;2022-08-19T12:38:14;101129.59;;;18.92;51.32
73101;BME280;61288;53.446;-2.266;2022-08-19T12:40:40;101134.03;;;19.04;52.04
73101;BME280;61288;53.446;-2.266;2022-08-19T12:43:07;101133.28;;;19.02;51.88
73101;BME280;61288;53.446;-2.266;2022-08-19T12:45:34;101131.50;;;18.90;50.51
73101;BME280;61288;53.446;-2.266;2022-08-19T12:48:00;101134.44;;;18.85;52.02
73101;BME280;61288;53.446;-2.266;2022-08-19T12:50:25;101136.84;;;18.88;52.12
73101;BME280;61288;53.446;-2.266;2022-08-19T12:52:51;101139.47;;;18.88;51.47
73101;BME280;61288;53.446;-2.266;2022-08-19T12:55:17;101135.50;;;18.83;52.53
73101;BME280;61288;53.446;-2.266;2022-08-19T12:57:46;101145.88;;;18.84;53.21
73101;BME280;61288;53.446;-2.266;2022-08-19T13:00:16;101144.75;;;18.75;53.34
73101;BME280;61288;53.446;-2.266;2022-08-19T13:02:44;101152.59;;;18.62;51.88
73101;BME280;61288;53.446;-2.266;2022-08-19T13:05:13;101152.44;;;18.38;52.28
73101;BME280;61288;53.446;-2.266;2022-08-19T13:07:40;101150.34;;;18.30;51.88